AirNav   Air Wisconsin pilot careers
 
 1445 users online  

T42 Ruth Airport
Ruth, California, USA


FAA INFORMATION EFFECTIVE 01 FEBRUARY 2018

Location

FAA Identifier: T42
Lat/Long: 40-12-41.3000N / 123-17-51.7000W
40-12.688333N / 123-17.861667W
40.2114722 / -123.2976944
(estimated)
Elevation: 2781 ft. / 847.6 m (surveyed)
Variation: 17E (1985)
From city: 7 miles S of RUTH, CA
Time zone: UTC -8 (UTC -7 during Daylight Saving Time)
Zip code: 95526

Airport Operations

Airport use: Open to the public
Activation date: 01/2002
Control tower: no
ARTCC: OAKLAND CENTER
FSS: RANCHO MURIETA FLIGHT SERVICE STATION
NOTAMs facility: RIU (NOTAM-D service available)
Attendance: UNATNDD
Pattern altitude: 3781 ft. MSL
Wind indicator: yes
Segmented circle: no

Airport Communications

CTAF/UNICOM: 122.8

Airport Services

Parking: tiedowns
Airframe service: NONE
Powerplant service: NONE
Bottled oxygen: NONE
Bulk oxygen: NONE

Runway Information

Runway 13/31

Dimensions: 3500 x 50 ft. / 1067 x 15 m
Surface: asphalt, in fair condition
Weight bearing capacity: 
Single wheel: 12.0
RUNWAY 13  RUNWAY 31
Latitude: 40-12.939167N40-12.437500N
Longitude: 123-18.046833W123-17.676000W
Gradient: 0.2%0.2%
Traffic pattern: leftleft
Markings: basic, in fair conditionbasic, in fair condition
Runway end identifier lights: nono
Obstructions: 6 ft. berm, 200 ft. from runway, 125 ft. left of centerline
4' FENCE 75' LEFT & 100' RIGHT OF CNTRLN.
400 ft. hill, 2400 ft. from runway, 400 ft. right of centerline, 5:1 slope to clear

Airport Ownership and Management from official FAA records

Ownership: Publicly-owned
Owner: COUNTY OF TRINITY
PO BOX 2490
WEAVERVILLE, CA 96093-0476
Phone 530-623-1365
Manager: RICHARD TIPPETT
PO BOX 2490
WEAVERVILLE, CA 96093-2490
Phone 530-623-1365
TRINITY COUNTY TRANSPORTATION SERVICES OFFICE IN WEAVERVILLE

Airport Operational Statistics

Aircraft based on the field: 4
Single engine airplanes: 4
    
Aircraft operations: avg 38/week *
75% transient general aviation
25% local general aviation
* for 12-month period ending 31 December 2016

Additional Remarks

AIRPORT CLSD NIGHTS.
INTERMITTENTLY CLOSED WINTERS DUE TO SNOW, CTC COUNTY TRANSPORTATION OFFICE FOR INFO 530-623-1365.
HIGH TERRAIN ALL QUADRANTS.

Instrument Procedures

There are no published instrument procedures at T42.

Some nearby airports with instrument procedures:

KFOT - Rohnerville Airport (43 nm NW)
O28 - Ells Field-Willits Municipal Airport (46 nm S)
KRBL - Red Bluff Municipal Airport (48 nm E)
KRDD - Redding Municipal Airport (49 nm E)
KEKA - Murray Field Airport (51 nm NW)
 
Loc | Ops | Rwys | IFR | FBO | Links
Com | Nav | Svcs | Stats | Notes

AirNav Hotels Sweepstakes
 
Area around T42 (Ruth Airport)
 
Road maps at: MapQuest Bing Google
 
Aerial photo
WARNING: Photo may not be current or correct
Aerial photo of T42 (Ruth Airport)
Do you have a better or more recent aerial photo of Ruth Airport that you would like to share? If so, please send us your photo.

 
Sectional chart

 
Airport distance calculator
Flying to Ruth Airport? Find the distance to fly.

From to T42

Sunrise and sunset
Times for 23-Feb-2018
 Local
(UTC-8)
 Zulu
(UTC)
Morning civil twilight06:2914:29
Sunrise06:5614:56
Sunset17:5701:57
Evening civil twilight18:2402:24

Current date and time
Zulu (UTC)  23-Feb-2018 18:45:08
Local (UTC-8)  23-Feb-2018 10:45:08
 
METAR
KRBL 
48nm E 
231754Z AUTO 35019G24KT 10SM CLR 07/M10 A3044 RMK AO2 SLP308 T00721100 10072 21006 51020
KRDD 
49nm E 
231753Z 05010G18KT 10SM CLR 07/M10 A3043 RMK AO2 SLP306 T00671100 10067 20011 51021
KO54 
49nm E 
231835Z AUTO 00000KT 10SM CLR 01/M09 A3038 RMK AO1
TAF
KRBL 
48nm E 
231725Z 2318/2418 36014G22KT P6SM SKC FM232300 33007KT P6SM SKC FM241200 30005KT P6SM FEW250
KRDD 
49nm E 
231725Z 2318/2418 36011KT P6SM SKC FM241200 VRB03KT P6SM BKN250
NOTAMs
Click for the latest NOTAMs
NOTAMs are issued by the DoD/FAA and will open in a separate window not controlled by AirNav.

 

 
 

Would you like to see your business listed on this page?

 If your business provides an interesting product or service to pilots, flight crews, aircraft, or users of the Ruth Airport, you should consider listing it here.  To start the listing process, click on the button below
 
Add a business
 

Other Pages about Ruth Airport

Update a link
 
Copyright © AirNav, LLC. All rights reserved. Privacy Policy  Contact